Time;durP1;ratioP1;P1;durP2;ratioP2;P2;SDS_P1;SDS_P2;PMS_P1;PMS_P2;Temp;Humidity;BMP_temperature;BMP_pressure;BME280_temperature;BME280_humidity;BME280_pressure;Samples;Min_cycle;Max_cycle;Signal;HPM_P1;HPM_P2
2022/09/16 00:02:13;;;;;;;3.08;1.50;;;;;;;11.63;100.00;101051.59;5027111;28;20061;-66
2022/09/16 00:04:39;;;;;;;6.75;1.55;;;;;;;11.66;100.00;101046.50;5027280;28;20017;-67
2022/09/16 00:07:05;;;;;;;3.50;1.52;;;;;;;11.67;100.00;101049.97;5027457;28;20082;-66
2022/09/16 00:09:30;;;;;;;4.50;1.50;;;;;;;11.67;100.00;101039.59;5027313;28;20061;-66
2022/09/16 00:11:55;;;;;;;4.75;1.52;;;;;;;11.65;100.00;101042.16;5027472;28;20033;-67
2022/09/16 00:14:20;;;;;;;3.60;1.65;;;;;;;11.64;100.00;101040.38;5026522;28;20108;-67
2022/09/16 00:16:46;;;;;;;5.18;1.40;;;;;;;11.64;100.00;101041.25;5027330;28;20405;-66
2022/09/16 00:19:12;;;;;;;6.25;1.80;;;;;;;11.64;100.00;101037.78;5026685;28;20021;-67
2022/09/16 00:21:37;;;;;;;5.13;1.65;;;;;;;11.63;100.00;101036.91;5026663;28;20029;-66
2022/09/16 00:24:03;;;;;;;7.80;2.05;;;;;;;11.62;100.00;101031.69;5027030;28;20026;-66
2022/09/16 00:26:28;;;;;;;4.72;1.70;;;;;;;11.62;100.00;101036.88;5027537;28;20022;-66
2022/09/16 00:28:54;;;;;;;4.57;1.83;;;;;;;11.61;100.00;101029.91;5026932;28;20473;-66
2022/09/16 00:31:19;;;;;;;3.88;1.30;;;;;;;11.61;100.00;101020.41;5026926;28;20034;-66
2022/09/16 00:33:44;;;;;;;5.47;1.60;;;;;;;11.59;100.00;101016.00;5027200;28;20026;-67
2022/09/16 00:36:13;;;;;;;3.70;1.80;;;;;;;11.61;100.00;101027.31;5026416;28;20147;-66
2022/09/16 00:38:39;;;;;;;7.78;1.45;;;;;;;11.61;100.00;101023.00;5026663;28;20541;-67
2022/09/16 00:41:06;;;;;;;5.05;1.40;;;;;;;11.63;100.00;101017.88;5026398;28;20140;-67
2022/09/16 00:43:48;;;;;;;2.60;1.13;;;;;;;11.62;100.00;101029.09;5026337;28;20037;-66
2022/09/16 00:46:15;;;;;;;4.78;1.30;;;;;;;11.63;100.00;101028.25;5025320;28;20055;-66
2022/09/16 00:48:41;;;;;;;6.15;1.67;;;;;;;11.61;100.00;101029.91;5026457;28;20025;-66
2022/09/16 00:51:12;;;;;;;4.20;1.23;;;;;;;11.62;100.00;101026.50;5026653;28;20048;-67
2022/09/16 00:53:41;;;;;;;3.75;1.00;;;;;;;11.61;100.00;101035.09;5026645;28;20052;-67
2022/09/16 00:56:11;;;;;;;4.20;1.23;;;;;;;11.59;100.00;101023.78;5026827;28;20037;-66
2022/09/16 00:58:48;;;;;;;5.40;1.63;;;;;;;11.59;100.00;101021.19;5026339;28;20700;-66
2022/09/16 01:01:13;;;;;;;5.47;1.25;;;;;;;11.60;100.00;101033.34;5030299;28;20013;-66
2022/09/16 01:03:50;;;;;;;7.45;1.80;;;;;;;11.60;100.00;101028.16;5030182;28;20040;-66
2022/09/16 01:06:17;;;;;;;3.53;1.20;;;;;;;11.57;100.00;101022.84;5030499;28;20026;-66
2022/09/16 01:08:44;;;;;;;2.90;1.50;;;;;;;11.52;100.00;101026.22;5029818;28;20025;-67
2022/09/16 01:11:10;;;;;;;5.78;1.50;;;;;;;11.47;100.00;101019.09;5030181;28;20021;-66
2022/09/16 01:13:36;;;;;;;7.05;1.67;;;;;;;11.40;100.00;101020.63;5029809;28;20025;-66
2022/09/16 01:16:25;;;;;;;3.35;1.23;;;;;;;11.32;100.00;101015.19;5030085;28;20017;-66
2022/09/16 01:19:10;;;;;;;5.93;1.58;;;;;;;11.21;100.00;101020.03;5030033;28;20079;-66
2022/09/16 01:21:43;;;;;;;4.28;1.60;;;;;;;11.14;100.00;101012.88;5029887;28;20025;-66
2022/09/16 01:24:29;;;;;;;3.80;1.80;;;;;;;11.08;100.00;101012.69;5029661;28;20035;-66
2022/09/16 01:27:28;;;;;;;4.57;2.35;;;;;;;11.03;100.00;101016.00;5029885;28;20022;-66
2022/09/16 01:30:12;;;;;;;5.57;2.00;;;;;;;11.01;100.00;101012.47;5029221;28;20022;-67
2022/09/16 01:32:40;;;;;;;6.47;2.30;;;;;;;10.97;100.00;101010.63;5029612;28;20496;-67
2022/09/16 01:35:19;;;;;;;4.15;1.95;;;;;;;10.97;100.00;101017.53;5029246;28;20082;-67
2022/09/16 01:38:16;;;;;;;10.38;2.30;;;;;;;10.95;100.00;101014.00;5029261;28;20026;-66
2022/09/16 01:40:53;;;;;;;7.45;2.05;;;;;;;10.89;100.00;101009.47;5029379;28;20025;-66
2022/09/16 01:43:38;;;;;;;10.77;2.22;;;;;;;10.82;100.00;101000.63;5029107;28;20040;-66
2022/09/16 01:46:23;;;;;;;10.43;2.25;;;;;;;10.81;100.00;101015.28;5029763;28;20048;-67
2022/09/16 01:49:00;;;;;;;3.42;2.03;;;;;;;10.77;100.00;101007.38;5028956;28;20514;-67
2022/09/16 01:51:43;;;;;;;6.35;2.28;;;;;;;10.75;100.00;100999.53;5028959;28;20166;-66
2022/09/16 01:54:12;;;;;;;8.32;2.72;;;;;;;10.73;100.00;101001.19;5028238;28;20090;-66
2022/09/16 01:56:55;;;;;;;3.58;2.55;;;;;;;10.68;100.00;101008.84;5029059;28;20493;-66
2022/09/16 01:59:41;;;;;;;6.82;2.25;;;;;;;10.64;100.00;101012.13;5029127;28;20365;-66
2022/09/16 02:02:19;;;;;;;6.60;2.20;;;;;;;10.63;100.00;101019.88;5029446;28;20041;-66
2022/09/16 02:04:56;;;;;;;3.85;2.15;;;;;;;10.60;100.00;101009.38;5029362;28;20033;-66
2022/09/16 02:07:28;;;;;;;5.82;2.50;;;;;;;10.60;100.00;101022.31;5028922;28;20052;-67
2022/09/16 02:09:57;;;;;;;7.60;2.40;;;;;;;10.57;100.00;101016.22;5029157;28;20029;-66
2022/09/16 02:12:31;;;;;;;6.38;2.92;;;;;;;10.55;100.00;101017.00;5027872;28;20025;-66
2022/09/16 02:15:04;;;;;;;5.85;2.45;;;;;;;10.54;100.00;101016.09;5029534;28;20033;-66
2022/09/16 02:17:34;;;;;;;6.75;2.63;;;;;;;10.56;100.00;101022.22;5028973;28;20115;-66
2022/09/16 02:20:06;;;;;;;7.43;2.35;;;;;;;10.59;100.00;101025.75;5028320;28;20025;-66
2022/09/16 02:22:45;;;;;;;4.65;2.50;;;;;;;10.63;100.00;101023.31;5028902;28;20035;-66
2022/09/16 02:25:14;;;;;;;3.42;2.50;;;;;;;10.64;100.00;101022.50;5028921;28;20555;-66
2022/09/16 02:27:43;;;;;;;6.53;2.40;;;;;;;10.66;100.00;101019.97;5028823;28;20044;-67
2022/09/16 02:30:14;;;;;;;4.97;2.20;;;;;;;10.66;100.00;101018.25;5028742;28;20028;-67
2022/09/16 02:32:50;;;;;;;4.32;2.40;;;;;;;10.68;100.00;101020.91;5016239;28;20026;-66
2022/09/16 02:35:18;;;;;;;4.70;2.30;;;;;;;10.67;100.00;101011.34;5015453;28;20119;-66
2022/09/16 02:37:52;;;;;;;4.60;1.77;;;;;;;10.69;100.00;101025.25;5028653;28;20052;-67
2022/09/16 02:40:43;;;;;;;8.07;2.55;;;;;;;10.64;100.00;101021.59;5028421;28;20531;-68
2022/09/16 02:43:08;;;;;;;7.22;2.22;;;;;;;10.67;100.00;101019.13;5019457;28;20050;-66
2022/09/16 02:46:09;;;;;;;7.40;2.33;;;;;;;10.69;100.00;101014.88;5028158;28;20029;-67
2022/09/16 02:48:34;;;;;;;4.50;2.08;;;;;;;10.71;100.00;101014.91;5028404;28;20029;-66
2022/09/16 02:51:11;;;;;;;7.97;2.42;;;;;;;10.70;100.00;101011.47;5028217;28;20025;-67
2022/09/16 02:53:57;;;;;;;6.38;2.67;;;;;;;10.74;100.00;101008.13;5028255;28;20583;-67
2022/09/16 02:56:30;;;;;;;6.70;2.45;;;;;;;10.76;100.00;101013.38;5028319;28;20030;-67
2022/09/16 02:58:55;;;;;;;6.90;2.15;;;;;;;10.75;100.00;101014.22;5027868;28;20303;-67
2022/09/16 03:01:23;;;;;;;8.45;2.40;;;;;;;10.78;100.00;101009.13;5028132;28;20021;-67
2022/09/16 03:03:49;;;;;;;7.57;2.38;;;;;;;10.78;100.00;101006.53;5028239;28;20442;-67
2022/09/16 03:06:19;;;;;;;2.97;1.73;;;;;;;10.80;100.00;101007.47;5027732;28;20104;-67
2022/09/16 03:08:46;;;;;;;11.88;2.13;;;;;;;10.83;100.00;101009.28;5027658;28;20033;-66
2022/09/16 03:11:24;;;;;;;7.53;2.38;;;;;;;10.86;100.00;101009.38;5027942;28;20505;-67
2022/09/16 03:14:07;;;;;;;4.55;1.90;;;;;;;10.87;100.00;101004.25;5027420;28;20039;-67
2022/09/16 03:16:51;;;;;;;4.60;1.50;;;;;;;10.87;100.00;101004.25;5027717;28;20148;-67
2022/09/16 03:19:19;;;;;;;6.13;1.88;;;;;;;10.89;100.00;100997.41;5027623;28;20036;-67
2022/09/16 03:22:07;;;;;;;4.18;2.00;;;;;;;10.89;100.00;100996.53;5027689;28;20099;-67
2022/09/16 03:25:02;;;;;;;4.68;1.77;;;;;;;10.89;100.00;100992.22;5018280;28;20041;-67
2022/09/16 03:27:47;;;;;;;6.13;1.88;;;;;;;10.93;100.00;101004.47;5027208;28;20029;-67
2022/09/16 03:30:13;;;;;;;6.85;1.95;;;;;;;10.97;100.00;101005.44;5014869;28;20496;-67
2022/09/16 03:32:46;;;;;;;3.67;1.60;;;;;;;11.00;100.00;101009.84;5027641;28;20033;-67
2022/09/16 03:35:19;;;;;;;3.85;1.60;;;;;;;11.01;100.00;101014.22;5027133;28;20120;-68
2022/09/16 03:37:46;;;;;;;4.57;1.55;;;;;;;10.97;100.00;101008.03;5026999;28;20057;-67
2022/09/16 03:40:16;;;;;;;5.82;1.73;;;;;;;10.95;100.00;101001.94;5026801;28;20014;-67
2022/09/16 03:42:43;;;;;;;5.72;1.50;;;;;;;10.93;100.00;101003.56;5026415;28;20510;-67
2022/09/16 03:45:13;;;;;;;5.32;1.83;;;;;;;10.93;100.00;101006.16;5027134;28;20057;-67
2022/09/16 03:47:39;;;;;;;4.53;1.27;;;;;;;10.94;100.00;101005.31;5009430;28;20033;-67
2022/09/16 03:50:05;;;;;;;8.45;1.63;;;;;;;10.93;100.00;101003.56;5027170;28;20036;-67
2022/09/16 03:52:30;;;;;;;6.05;1.85;;;;;;;10.93;100.00;101003.56;5027067;28;20025;-67
2022/09/16 03:54:55;;;;;;;5.28;1.80;;;;;;;10.92;100.00;100997.50;5027199;28;20426;-67
2022/09/16 03:57:21;;;;;;;5.65;2.05;;;;;;;10.93;100.00;100994.09;5026639;28;20025;-68
2022/09/16 03:59:46;;;;;;;4.10;1.52;;;;;;;10.95;100.00;101001.94;5009492;28;20104;-67
2022/09/16 04:02:11;;;;;;;4.03;1.58;;;;;;;10.93;100.00;101004.47;5026926;28;20087;-68
2022/09/16 04:04:37;;;;;;;6.30;1.77;;;;;;;10.93;100.00;101003.56;5027096;28;20386;-67
2022/09/16 04:07:02;;;;;;;8.90;1.92;;;;;;;10.93;100.00;101004.47;5027165;28;20056;-67
2022/09/16 04:09:28;;;;;;;3.97;1.60;;;;;;;10.94;100.00;101010.50;5027042;28;20030;-67
2022/09/16 04:11:53;;;;;;;5.40;2.05;;;;;;;10.93;100.00;100998.41;5027284;28;20104;-68
2022/09/16 04:14:19;;;;;;;7.47;1.73;;;;;;;10.93;100.00;101004.47;5027137;28;20100;-67
2022/09/16 04:16:44;;;;;;;4.68;1.52;;;;;;;10.93;100.00;101001.88;5026572;28;20028;-67
2022/09/16 04:19:12;;;;;;;4.25;1.40;;;;;;;10.93;100.00;101006.16;5027016;28;20029;-67
2022/09/16 04:21:38;;;;;;;5.75;2.00;;;;;;;10.93;100.00;101009.66;5027088;28;20075;-67
2022/09/16 04:24:04;;;;;;;4.60;1.95;;;;;;;10.94;100.00;101005.31;5026999;28;20041;-67
2022/09/16 04:26:29;;;;;;;4.57;1.67;;;;;;;10.91;100.00;101005.22;5026938;28;20183;-67
2022/09/16 04:28:54;;;;;;;3.72;1.55;;;;;;;10.87;100.00;101000.78;5026442;28;20390;-67
2022/09/16 04:31:20;;;;;;;3.75;1.88;;;;;;;10.85;100.00;101005.91;5026354;28;20048;-67
2022/09/16 04:33:46;;;;;;;6.70;1.77;;;;;;;10.85;100.00;101005.91;5026993;28;20358;-67
2022/09/16 04:36:14;;;;;;;4.97;1.70;;;;;;;10.87;100.00;101008.53;5030274;28;20084;-68
2022/09/16 04:38:41;;;;;;;5.63;2.10;;;;;;;10.86;100.00;101011.97;5030340;28;20037;-68
2022/09/16 04:41:13;;;;;;;4.68;1.85;;;;;;;10.85;100.00;101015.41;5030460;28;20072;-67
2022/09/16 04:43:39;;;;;;;4.47;2.13;;;;;;;10.84;100.00;101011.03;5030585;28;20048;-67
2022/09/16 04:46:05;;;;;;;2.95;2.00;;;;;;;10.83;100.00;101014.47;5030523;28;20025;-67
2022/09/16 04:48:31;;;;;;;6.35;1.85;;;;;;;10.80;100.00;101008.34;5030528;28;20025;-67
2022/09/16 04:51:10;;;;;;;2.88;1.40;;;;;;;10.80;100.00;101005.75;5030083;28;20516;-68
2022/09/16 04:53:38;;;;;;;4.68;1.65;;;;;;;10.82;100.00;101000.63;5030623;28;20473;-68
2022/09/16 04:56:06;;;;;;;5.80;1.40;;;;;;;10.82;100.00;101003.22;5029830;28;20025;-67
2022/09/16 04:58:31;;;;;;;4.88;1.50;;;;;;;10.83;100.00;100989.41;5030237;28;20025;-67
2022/09/16 05:01:06;;;;;;;5.40;1.48;;;;;;;10.82;100.00;100990.25;5030268;28;20484;-67
2022/09/16 05:03:32;;;;;;;5.80;1.60;;;;;;;10.78;100.00;100981.50;5030370;28;20413;-68
2022/09/16 05:06:25;;;;;;;2.85;1.20;;;;;;;10.78;100.00;100989.28;5029768;28;20035;-67
2022/09/16 05:08:53;;;;;;;3.60;0.98;;;;;;;10.81;100.00;100993.69;5026778;28;20041;-68
2022/09/16 05:11:21;;;;;;;4.15;1.30;;;;;;;10.83;100.00;100994.59;5028109;28;20029;-68
2022/09/16 05:13:46;;;;;;;2.55;1.13;;;;;;;10.86;100.00;101006.78;5031202;28;20021;-67
2022/09/16 05:16:17;;;;;;;2.58;1.30;;;;;;;10.88;100.00;101005.13;5041766;28;20032;-67
2022/09/16 05:18:45;;;;;;;3.03;1.20;;;;;;;10.89;100.00;101012.06;5027442;28;20496;-67
2022/09/16 05:21:13;;;;;;;3.40;1.15;;;;;;;10.88;100.00;101007.72;5028981;28;20025;-68
2022/09/16 05:23:39;;;;;;;4.70;0.98;;;;;;;10.86;100.00;101001.59;5029358;28;20112;-68
2022/09/16 05:26:11;;;;;;;3.22;1.20;;;;;;;10.87;100.00;101011.13;5029456;28;20030;-68
2022/09/16 05:28:38;;;;;;;3.42;1.25;;;;;;;10.85;100.00;101018.00;5029378;28;20033;-68
2022/09/16 05:31:08;;;;;;;3.67;1.02;;;;;;;10.81;100.00;101025.66;5028505;28;20091;-68
2022/09/16 05:33:34;;;;;;;3.55;1.08;;;;;;;10.80;100.00;101029.09;5029291;28;20025;-67
2022/09/16 05:36:07;;;;;;;1.77;1.00;;;;;;;10.79;100.00;101019.53;5028610;28;20431;-67
2022/09/16 05:38:32;;;;;;;8.52;1.65;;;;;;;10.83;100.00;101024.84;5029700;28;20057;-67
2022/09/16 05:40:59;;;;;;;5.55;1.25;;;;;;;10.78;100.00;101004.81;5027750;28;20048;-67
2022/09/16 05:43:24;;;;;;;2.60;0.88;;;;;;;10.78;100.00;101009.13;5029200;28;20061;-67
2022/09/16 05:45:51;;;;;;;2.47;0.60;;;;;;;10.77;100.00;101012.56;5027856;28;20046;-67
2022/09/16 05:48:17;;;;;;;2.28;0.85;;;;;;;10.76;100.00;101016.84;5028906;28;20569;-68
2022/09/16 05:50:50;;;;;;;3.22;1.20;;;;;;;10.78;100.00;101025.56;5029032;28;20140;-67
2022/09/16 05:53:16;;;;;;;3.63;0.98;;;;;;;10.81;100.00;101020.47;5029620;28;20072;-67
2022/09/16 05:55:41;;;;;;;2.60;1.02;;;;;;;10.84;100.00;101014.53;5028839;28;20060;-67
2022/09/16 05:58:06;;;;;;;4.10;1.13;;;;;;;10.88;100.00;101020.69;5030377;28;20507;-67
2022/09/16 06:00:31;;;;;;;3.15;1.33;;;;;;;10.91;100.00;101023.38;5034635;28;20061;-67
2022/09/16 06:02:57;;;;;;;3.13;1.38;;;;;;;10.93;100.00;101020.03;5028668;28;20026;-67
2022/09/16 06:05:22;;;;;;;2.78;0.90;;;;;;;10.97;100.00;101015.81;5029146;28;20384;-67
2022/09/16 06:07:47;;;;;;;3.72;2.22;;;;;;;11.02;100.00;101019.44;5028007;28;20029;-67
2022/09/16 06:10:13;;;;;;;2.38;1.08;;;;;;;11.08;100.00;101017.88;5028447;28;20021;-67
2022/09/16 06:12:38;;;;;;;4.65;0.80;;;;;;;11.10;100.00;101018.81;5028035;28;20215;-67
2022/09/16 06:15:04;;;;;;;4.85;1.05;;;;;;;11.13;100.00;101022.41;5028082;28;20021;-67
2022/09/16 06:17:29;;;;;;;1.67;0.93;;;;;;;11.19;100.00;101026.03;5027848;28;20389;-67
2022/09/16 06:19:54;;;;;;;2.70;1.10;;;;;;;11.23;100.00;101033.94;5026801;28;20062;-67
2022/09/16 06:22:19;;;;;;;5.20;1.45;;;;;;;11.31;100.00;101035.91;5028288;28;20469;-67
2022/09/16 06:24:45;;;;;;;2.90;1.40;;;;;;;11.42;100.00;101044.91;5027551;28;20724;-68
2022/09/16 06:27:10;;;;;;;4.22;1.00;;;;;;;11.48;100.00;101042.50;5027386;28;20022;-67
2022/09/16 06:29:35;;;;;;;5.03;1.25;;;;;;;11.50;100.00;101048.63;5028512;28;20025;-68
2022/09/16 06:32:01;;;;;;;4.20;1.48;;;;;;;11.46;100.00;101046.75;5028599;28;20014;-68
2022/09/16 06:34:26;;;;;;;2.97;0.90;;;;;;;11.44;100.00;101043.22;5028660;28;20025;-67
2022/09/16 06:36:51;;;;;;;2.63;1.20;;;;;;;11.39;100.00;101039.59;5028055;28;20520;-68
2022/09/16 06:39:17;;;;;;;3.67;0.77;;;;;;;11.40;100.00;101038.78;5027651;28;20025;-68
2022/09/16 06:41:42;;;;;;;4.63;1.20;;;;;;;11.42;100.00;101044.91;5028201;28;20394;-67
2022/09/16 06:44:08;;;;;;;5.72;1.75;;;;;;;11.45;100.00;101052.78;5027806;28;20112;-67
2022/09/16 06:46:33;;;;;;;3.50;1.27;;;;;;;11.47;100.00;101053.72;5028459;28;20022;-68
2022/09/16 06:48:58;;;;;;;3.85;1.05;;;;;;;11.50;100.00;101056.41;5027493;28;20360;-68
2022/09/16 06:51:26;;;;;;;2.90;0.75;;;;;;;11.50;100.00;101059.00;5028258;28;20061;-67
2022/09/16 06:53:52;;;;;;;3.45;0.88;;;;;;;11.55;100.00;101055.69;5027468;28;20037;-67
2022/09/16 06:56:19;;;;;;;1.17;0.73;;;;;;;11.61;100.00;101058.47;5027742;28;20018;-67
2022/09/16 06:58:47;;;;;;;5.30;1.38;;;;;;;11.64;100.00;101056.84;5027451;28;20040;-67
2022/09/16 07:01:16;;;;;;;1.73;0.60;;;;;;;11.64;100.00;101053.34;5028052;28;20025;-67
2022/09/16 07:03:44;;;;;;;4.50;0.93;;;;;;;11.63;100.00;101049.91;5028035;28;20749;-67
2022/09/16 07:06:11;;;;;;;3.22;0.95;;;;;;;11.64;100.00;101045.56;5027781;28;20490;-67
2022/09/16 07:08:37;;;;;;;4.68;0.90;;;;;;;11.79;100.00;101044.28;5027814;28;20500;-67
2022/09/16 07:11:05;;;;;;;3.30;1.02;;;;;;;11.96;100.00;101048.25;5027105;28;20052;-68
2022/09/16 07:13:31;;;;;;;3.17;0.80;;;;;;;12.28;100.00;101049.19;5027951;28;20037;-67
2022/09/16 07:16:01;;;;;;;2.28;0.88;;;;;;;12.56;100.00;101047.34;5027667;28;20052;-67
2022/09/16 07:18:30;;;;;;;5.10;1.10;;;;;;;13.11;100.00;101051.34;5027706;28;20037;-68
2022/09/16 07:21:08;;;;;;;7.25;1.13;;;;;;;13.50;100.00;101047.06;5027073;28;20056;-67
2022/09/16 07:23:35;;;;;;;3.03;1.33;;;;;;;14.02;100.00;101046.50;5027438;28;20021;-68
2022/09/16 07:26:07;;;;;;;2.83;0.93;;;;;;;14.71;100.00;101045.22;5027089;28;20306;-67
2022/09/16 07:28:32;;;;;;;2.63;0.80;;;;;;;15.22;100.00;101053.03;5027766;28;20496;-67
2022/09/16 07:31:05;;;;;;;2.10;0.80;;;;;;;15.54;100.00;101052.66;5036485;28;20016;-67
2022/09/16 07:33:34;;;;;;;1.58;0.77;;;;;;;16.08;100.00;101054.31;5026187;28;20449;-67
2022/09/16 07:35:59;;;;;;;3.17;0.75;;;;;;;16.61;96.62;101048.78;5025969;28;20018;-67
2022/09/16 07:38:26;;;;;;;2.38;0.90;;;;;;;17.09;94.82;101054.44;5026448;28;20032;-67
2022/09/16 07:40:51;;;;;;;2.28;0.82;;;;;;;17.41;91.40;101058.25;5030440;28;20591;-67
2022/09/16 07:43:16;;;;;;;1.98;0.77;;;;;;;17.51;88.92;101065.28;5033692;28;20134;-67
2022/09/16 07:45:42;;;;;;;1.90;0.88;;;;;;;17.79;87.12;101063.69;5026399;28;20036;-67
2022/09/16 07:48:08;;;;;;;2.47;0.90;;;;;;;17.40;86.96;101069.56;5024130;28;20029;-68
2022/09/16 07:50:33;;;;;;;6.18;1.55;;;;;;;16.99;86.63;101066.59;5025011;28;20485;-68
2022/09/16 07:52:58;;;;;;;3.03;0.90;;;;;;;16.49;87.97;101063.50;5027437;28;20025;-67
2022/09/16 07:55:24;;;;;;;2.65;0.93;;;;;;;15.99;91.19;101062.88;5026487;28;20021;-66
2022/09/16 07:57:49;;;;;;;4.75;0.85;;;;;;;15.57;94.24;101063.19;5024916;28;20162;-66
2022/09/16 08:00:15;;;;;;;5.22;1.20;;;;;;;15.25;97.63;101076.63;5027245;28;20377;-67
2022/09/16 08:02:41;;;;;;;4.55;0.70;;;;;;;14.99;99.85;101070.09;5026180;28;20469;-67
2022/09/16 08:05:06;;;;;;;5.28;1.10;;;;;;;14.75;100.00;101075.72;5026183;28;20498;-66
2022/09/16 08:07:31;;;;;;;3.75;1.00;;;;;;;14.52;100.00;101078.75;5027110;28;20029;-66
2022/09/16 08:09:57;;;;;;;3.38;0.90;;;;;;;14.69;100.00;101086.03;5026631;28;20017;-66
2022/09/16 08:12:22;;;;;;;2.00;0.82;;;;;;;15.27;100.00;101084.47;5027160;28;20024;-67
2022/09/16 08:14:47;;;;;;;3.00;1.13;;;;;;;15.97;100.00;101086.34;5026281;28;20067;-67
2022/09/16 08:17:12;;;;;;;3.10;0.85;;;;;;;16.55;98.41;101081.88;5030095;28;20074;-67
2022/09/16 08:19:39;;;;;;;3.65;1.10;;;;;;;16.87;94.92;101077.84;5028805;28;20033;-67
2022/09/16 08:22:04;;;;;;;4.90;0.85;;;;;;;17.38;90.63;101079.16;5027011;28;20626;-67
2022/09/16 08:24:30;;;;;;;3.00;0.75;;;;;;;17.80;86.98;101075.91;5026421;28;20030;-67
2022/09/16 08:26:55;;;;;;;3.42;0.90;;;;;;;18.06;86.46;101083.06;5026440;28;20021;-68
2022/09/16 08:29:21;;;;;;;1.80;0.75;;;;;;;18.42;82.29;101086.72;5026984;28;20026;-67
2022/09/16 08:31:47;;;;;;;2.97;0.82;;;;;;;18.67;80.43;101081.53;5026366;28;20466;-67
2022/09/16 08:34:12;;;;;;;1.95;0.70;;;;;;;18.80;82.39;101087.69;5026834;28;20024;-67
2022/09/16 08:36:37;;;;;;;3.55;0.90;;;;;;;19.00;78.99;101088.56;5026880;28;20092;-67
2022/09/16 08:39:03;;;;;;;3.38;0.85;;;;;;;18.94;77.67;101084.22;5026531;28;20458;-66
2022/09/16 08:41:59;;;;;;;3.97;0.90;;;;;;;19.05;78.15;101092.09;5026658;28;20048;-67
2022/09/16 08:44:39;;;;;;;1.67;0.90;;;;;;;19.18;77.74;101080.75;5015358;28;20021;-67
2022/09/16 08:47:21;;;;;;;2.83;1.05;;;;;;;19.30;75.36;101081.63;5026327;28;20033;-67
2022/09/16 08:49:49;;;;;;;6.35;0.90;;;;;;;19.34;76.67;101080.72;5026992;28;20024;-67
2022/09/16 08:52:28;;;;;;;2.33;0.80;;;;;;;19.32;76.71;101079.84;5030652;28;20035;-67
2022/09/16 08:54:59;;;;;;;3.25;1.10;;;;;;;19.20;76.74;101086.88;5017437;28;20533;-67
2022/09/16 08:57:28;;;;;;;2.88;1.05;;;;;;;19.10;75.38;101092.97;5026200;28;20022;-66
2022/09/16 09:00:00;;;;;;;3.47;1.10;;;;;;;19.15;76.10;101088.63;5025036;28;20083;-67
2022/09/16 09:02:46;;;;;;;2.10;0.90;;;;;;;19.18;76.71;101088.63;5025589;28;20091;-67
2022/09/16 09:05:20;;;;;;;3.60;1.00;;;;;;;19.00;74.73;101093.81;5038592;28;20434;-66
2022/09/16 09:07:46;;;;;;;3.22;0.90;;;;;;;19.02;75.86;101097.31;5025549;28;20535;-67
2022/09/16 09:10:28;;;;;;;2.67;1.10;;;;;;;18.95;73.93;101089.47;5026435;28;20033;-67
2022/09/16 09:13:02;;;;;;;2.42;0.70;;;;;;;18.84;73.51;101092.06;5026312;28;20473;-66
2022/09/16 09:15:51;;;;;;;3.92;1.25;;;;;;;18.82;73.04;101092.94;5026198;28;20060;-67
2022/09/16 09:18:34;;;;;;;4.38;0.93;;;;;;;19.02;73.50;101086.81;5032932;28;20040;-67
2022/09/16 09:21:29;;;;;;;1.75;0.60;;;;;;;18.92;71.15;101088.56;5030832;28;20025;-66
2022/09/16 09:24:34;;;;;;;6.43;0.93;;;;;;;18.72;74.30;101081.56;5026364;28;20033;-67
2022/09/16 09:27:12;;;;;;;3.00;0.60;;;;;;;18.46;73.42;101088.47;5028514;28;20041;-67
2022/09/16 09:30:04;;;;;;;4.00;0.73;;;;;;;18.11;72.59;101081.34;5029172;28;20588;-67
2022/09/16 09:32:41;;;;;;;5.05;0.85;;;;;;;17.82;72.50;101096.03;5021016;28;20396;-67
2022/09/16 09:35:34;;;;;;;2.38;0.70;;;;;;;17.47;77.01;101088.81;5029032;28;20033;-67
2022/09/16 09:38:31;;;;;;;2.00;0.90;;;;;;;17.19;77.76;101078.13;5021223;28;20036;-66
2022/09/16 09:41:05;;;;;;;3.42;0.43;;;;;;;17.01;76.86;101085.81;5029049;28;20032;-67
2022/09/16 09:43:50;;;;;;;3.63;0.65;;;;;;;16.85;80.64;101081.28;5044706;28;20025;-67
2022/09/16 09:46:32;;;;;;;5.20;0.98;;;;;;;16.80;81.58;101086.50;5027746;28;20583;-67
2022/09/16 09:49:23;;;;;;;1.02;0.47;;;;;;;16.99;81.84;101094.50;5025765;28;20036;-66
2022/09/16 09:51:56;;;;;;;4.30;0.63;;;;;;;17.12;78.81;101106.00;5020111;28;20484;-66
2022/09/16 09:54:24;;;;;;;3.55;0.50;;;;;;;17.00;75.38;101112.84;5025062;28;20025;-66
2022/09/16 09:56:54;;;;;;;3.30;0.43;;;;;;;16.52;75.37;101123.69;5028266;28;20033;-66
2022/09/16 09:59:19;;;;;;;0.77;0.30;;;;;;;15.98;74.67;101116.00;5028124;28;20025;-67
2022/09/16 10:01:44;;;;;;;1.65;0.45;;;;;;;15.56;76.82;101112.78;5028389;28;20028;-67
2022/09/16 10:04:14;;;;;;;1.90;0.32;;;;;;;15.22;79.44;101110.47;5028652;28;20028;-67
2022/09/16 10:06:40;;;;;;;1.63;0.30;;;;;;;14.84;81.25;101119.41;5028492;28;20034;-68
2022/09/16 10:09:12;;;;;;;0.95;0.40;;;;;;;14.62;86.13;101117.22;5028290;28;20037;-67
2022/09/16 10:11:55;;;;;;;3.67;0.60;;;;;;;14.49;90.33;101125.63;5035161;28;20036;-67
2022/09/16 10:14:30;;;;;;;3.70;0.40;;;;;;;14.32;93.78;101135.72;5032222;28;20041;-67
2022/09/16 10:16:59;;;;;;;2.85;0.75;;;;;;;14.13;94.36;101133.59;5019126;28;20381;-67
2022/09/16 10:19:27;;;;;;;4.45;0.60;;;;;;;13.92;95.67;101124.44;5028860;28;20030;-68
2022/09/16 10:22:08;;;;;;;1.77;0.20;;;;;;;13.73;94.05;101125.75;5028713;28;20030;-67
2022/09/16 10:24:38;;;;;;;;;;;;;;;13.44;92.59;101111.16;5028593;28;20248;-68
2022/09/16 10:27:20;;;;;;;2.28;0.20;;;;;;;13.29;92.42;101110.78;5017937;28;19909;-68
2022/09/16 10:29:46;;;;;;;2.22;0.30;;;;;;;13.19;95.31;101105.34;5028553;28;20022;-68
2022/09/16 10:32:18;;;;;;;2.03;0.28;;;;;;;13.12;97.31;101098.22;5028229;28;20034;-68
2022/09/16 10:34:45;;;;;;;1.20;0.28;;;;;;;13.04;99.25;101104.97;5027574;28;20023;-67
2022/09/16 10:37:13;;;;;;;1.65;0.20;;;;;;;12.88;99.03;101103.69;5028231;28;20021;-67
2022/09/16 10:39:42;;;;;;;0.60;0.13;;;;;;;12.94;100.00;101106.41;5010686;28;20538;-67
2022/09/16 10:42:25;;;;;;;0.50;0.10;;;;;;;13.05;100.00;101102.41;5028146;28;20448;-67
2022/09/16 10:44:54;;;;;;;0.13;0.10;;;;;;;13.18;100.00;101113.13;5028047;28;20052;-66
2022/09/16 10:47:23;;;;;;;1.10;0.25;;;;;;;13.33;100.00;101112.59;5027651;28;20037;-66
2022/09/16 10:49:56;;;;;;;0.20;0.10;;;;;;;13.43;100.00;101109.41;5028591;28;20032;-66
2022/09/16 10:52:24;;;;;;;1.40;0.30;;;;;;;13.54;98.08;101108.81;5028005;28;20025;-66
2022/09/16 10:54:50;;;;;;;0.88;0.43;;;;;;;13.75;97.38;101103.22;5028224;28;20025;-66
2022/09/16 10:57:42;;;;;;;0.43;0.17;;;;;;;14.14;100.00;101104.06;5027925;28;20128;-66
2022/09/16 11:00:19;;;;;;;1.45;0.40;;;;;;;14.44;100.00;101101.22;5025024;28;20041;-66
2022/09/16 11:03:11;;;;;;;0.73;0.20;;;;;;;14.55;100.00;101104.91;5028166;28;20017;-66
2022/09/16 11:06:13;;;;;;;0.95;0.20;;;;;;;14.53;100.00;101106.63;5004268;28;20037;-66
2022/09/16 11:09:04;;;;;;;1.50;0.30;;;;;;;14.40;100.00;101101.16;5027282;28;20440;-66
2022/09/16 11:11:32;;;;;;;0.75;0.32;;;;;;;14.23;100.00;101102.53;5027978;28;20021;-66
2022/09/16 11:14:20;;;;;;;2.55;0.38;;;;;;;14.04;100.00;101112.53;5027881;28;20033;-66
2022/09/16 11:17:25;;;;;;;3.35;0.60;;;;;;;13.81;100.00;101116.38;5027740;28;20022;-66
2022/09/16 11:20:15;;;;;;;3.40;0.60;;;;;;;13.68;100.00;101117.84;5027898;28;20033;-66
2022/09/16 11:22:53;;;;;;;2.38;0.50;;;;;;;13.62;100.00;101114.19;5027294;28;20389;-66
2022/09/16 11:25:30;;;;;;;3.35;0.50;;;;;;;13.50;100.00;101114.75;5027830;28;20095;-66
2022/09/16 11:28:17;;;;;;;1.55;0.30;;;;;;;13.36;100.00;101107.50;5027366;28;20032;-66
2022/09/16 11:31:09;;;;;;;1.67;0.70;;;;;;;13.26;100.00;101105.50;5027405;28;20037;-67
2022/09/16 11:33:45;;;;;;;4.40;0.70;;;;;;;13.42;100.00;101105.03;5020169;28;20536;-66
2022/09/16 11:36:25;;;;;;;3.00;0.80;;;;;;;13.68;100.00;101104.81;5027135;28;20373;-66
2022/09/16 11:39:25;;;;;;;2.05;0.68;;;;;;;14.17;100.00;101119.78;5027455;28;20040;-66
2022/09/16 11:42:12;;;;;;;5.15;0.80;;;;;;;14.56;100.00;101108.38;5027197;28;20375;-66